Time;durP1;ratioP1;P1;durP2;ratioP2;P2;SDS_P1;SDS_P2;PMS_P1;PMS_P2;Temp;Humidity;BMP_temperature;BMP_pressure;BME280_temperature;BME280_humidity;BME280_pressure;Samples;Min_cycle;Max_cycle;Signal;HPM_P1;HPM_P2
2023/02/18 00:00:38;;;;;;;24.65;14.90;;;;;;;;;;5057231;28;20327;-75
2023/02/18 00:03:25;;;;;;;23.80;14.90;;;;;;;;;;5059623;28;20021;-74
2023/02/18 00:06:11;;;;;;;24.55;14.93;;;;;;;;;;5058559;28;20485;-75
2023/02/18 00:09:00;;;;;;;25.88;15.85;;;;;;;;;;5057797;28;20449;-75
2023/02/18 00:11:46;;;;;;;22.67;14.73;;;;;;;;;;5058530;28;20373;-75
2023/02/18 00:14:31;;;;;;;29.05;15.95;;;;;;;;;;5058640;28;20021;-76
2023/02/18 00:17:17;;;;;;;23.25;15.32;;;;;;;;;;5058892;28;20025;-75
2023/02/18 00:20:03;;;;;;;29.05;15.52;;;;;;;;;;5060066;28;20017;-75
2023/02/18 00:22:49;;;;;;;22.38;14.32;;;;;;;;;;5072067;28;20017;-74
2023/02/18 00:25:34;;;;;;;26.75;15.55;;;;;;;;;;5070969;28;20055;-75
2023/02/18 00:28:20;;;;;;;23.85;15.00;;;;;;;;;;5070251;28;20017;-74
2023/02/18 00:31:10;;;;;;;27.55;15.43;;;;;;;;;;5069286;28;20028;-75
2023/02/18 00:33:57;;;;;;;26.33;16.23;;;;;;;;;;5070183;28;20507;-75
2023/02/18 00:36:42;;;;;;;26.15;15.10;;;;;;;;;;5061136;28;20017;-75
2023/02/18 00:39:29;;;;;;;30.23;15.70;;;;;;;;;;5057929;28;20049;-75
2023/02/18 00:42:15;;;;;;;24.83;14.65;;;;;;;;;;5057136;28;20541;-75
2023/02/18 00:45:00;;;;;;;24.67;14.70;;;;;;;;;;5056749;28;20067;-75
2023/02/18 00:47:46;;;;;;;28.85;15.70;;;;;;;;;;5058350;28;20509;-74
2023/02/18 00:50:32;;;;;;;26.95;16.27;;;;;;;;;;5058131;28;20029;-73
2023/02/18 00:53:17;;;;;;;25.45;16.02;;;;;;;;;;5057653;28;20025;-74
2023/02/18 00:56:03;;;;;;;31.80;16.25;;;;;;;;;;5058033;28;20082;-74
2023/02/18 00:58:49;;;;;;;23.75;14.57;;;;;;;;;;5057947;28;20020;-74
2023/02/18 01:01:34;;;;;;;25.75;14.93;;;;;;;;;;5057573;28;20412;-74
2023/02/18 01:04:20;;;;;;;24.50;15.40;;;;;;;;;;5057718;28;20021;-75
2023/02/18 01:07:05;;;;;;;29.27;15.60;;;;;;;;;;5057824;28;20040;-75
2023/02/18 01:09:51;;;;;;;25.90;15.40;;;;;;;;;;5056444;28;20090;-75
2023/02/18 01:12:36;;;;;;;25.10;14.93;;;;;;;;;;5057742;28;20406;-75
2023/02/18 01:15:22;;;;;;;27.50;15.43;;;;;;;;;;5057117;28;20074;-74
2023/02/18 01:18:08;;;;;;;25.75;15.00;;;;;;;;;;5057053;28;20027;-75
2023/02/18 01:20:54;;;;;;;24.55;14.65;;;;;;;;;;5056311;28;20429;-75
2023/02/18 01:23:40;;;;;;;25.00;15.55;;;;;;;;;;5056818;28;20441;-75
2023/02/18 01:26:25;;;;;;;25.10;15.48;;;;;;;;;;5056151;28;20029;-74
2023/02/18 01:29:11;;;;;;;23.08;14.98;;;;;;;;;;5056913;28;20456;-72
2023/02/18 01:31:57;;;;;;;27.55;15.60;;;;;;;;;;5055934;28;20480;-74
2023/02/18 01:34:42;;;;;;;24.73;15.02;;;;;;;;;;5057178;28;20373;-74
2023/02/18 01:37:28;;;;;;;23.75;15.60;;;;;;;;;;5057113;28;20067;-73
2023/02/18 01:40:14;;;;;;;21.73;14.70;;;;;;;;;;5056792;28;20009;-73
2023/02/18 01:43:00;;;;;;;24.13;14.88;;;;;;;;;;5056683;28;20100;-74
2023/02/18 01:45:51;;;;;;;24.02;14.30;;;;;;;;;;5057406;28;20029;-74
2023/02/18 01:48:40;;;;;;;22.05;14.02;;;;;;;;;;5056522;28;20029;-74
2023/02/18 01:51:27;;;;;;;23.02;13.82;;;;;;;;;;5056966;28;20025;-74
2023/02/18 01:54:13;;;;;;;21.67;13.13;;;;;;;;;;5057168;28;20025;-75
2023/02/18 01:56:58;;;;;;;24.15;13.73;;;;;;;;;;5056469;28;20364;-74
2023/02/18 01:59:50;;;;;;;20.50;12.75;;;;;;;;;;5056844;28;20017;-74
2023/02/18 02:02:38;;;;;;;21.48;13.23;;;;;;;;;;5056235;28;20122;-74
2023/02/18 02:05:23;;;;;;;20.98;12.98;;;;;;;;;;5056547;28;20032;-74
2023/02/18 02:08:09;;;;;;;24.55;13.10;;;;;;;;;;5055045;28;20025;-74
2023/02/18 02:11:07;;;;;;;25.17;12.57;;;;;;;;;;5056672;28;20050;-75
2023/02/18 02:13:59;;;;;;;21.73;12.20;;;;;;;;;;5056659;28;20123;-74
2023/02/18 02:17:04;;;;;;;21.35;12.00;;;;;;;;;;5056695;28;20060;-74
2023/02/18 02:20:02;;;;;;;19.00;11.68;;;;;;;;;;5056580;28;20070;-73
2023/02/18 02:22:48;;;;;;;18.92;11.65;;;;;;;;;;5055385;28;20017;-74
2023/02/18 02:25:52;;;;;;;17.30;10.60;;;;;;;;;;5056518;28;20095;-74
2023/02/18 02:28:56;;;;;;;19.63;11.40;;;;;;;;;;5056096;28;20053;-74
2023/02/18 02:31:51;;;;;;;17.98;11.65;;;;;;;;;;5055358;28;20478;-74
2023/02/18 02:34:46;;;;;;;18.48;11.25;;;;;;;;;;5056029;28;20031;-74
2023/02/18 02:37:43;;;;;;;19.75;11.05;;;;;;;;;;5055918;28;20024;-75
2023/02/18 02:40:28;;;;;;;18.30;10.55;;;;;;;;;;5055960;28;20035;-74
2023/02/18 02:43:20;;;;;;;16.40;10.38;;;;;;;;;;5055797;28;20021;-74
2023/02/18 02:46:06;;;;;;;17.17;9.82;;;;;;;;;;5055795;28;20053;-75
2023/02/18 02:48:57;;;;;;;15.52;9.82;;;;;;;;;;5054924;28;20097;-74
2023/02/18 02:51:47;;;;;;;16.90;10.80;;;;;;;;;;5054949;28;20037;-75
2023/02/18 02:54:33;;;;;;;15.18;10.05;;;;;;;;;;5055711;28;20032;-75
2023/02/18 02:57:19;;;;;;;16.27;9.80;;;;;;;;;;5055935;28;20017;-75
2023/02/18 03:00:09;;;;;;;14.70;9.82;;;;;;;;;;5054960;28;20017;-73
2023/02/18 03:02:54;;;;;;;21.00;9.80;;;;;;;;;;5054549;28;20119;-74
2023/02/18 03:05:43;;;;;;;15.20;9.45;;;;;;;;;;5054516;28;20029;-74
2023/02/18 03:08:28;;;;;;;14.98;9.75;;;;;;;;;;5054748;28;20071;-74
2023/02/18 03:11:14;;;;;;;17.63;9.90;;;;;;;;;;5054874;28;20039;-74
2023/02/18 03:14:13;;;;;;;15.02;9.48;;;;;;;;;;5059827;28;20028;-72
2023/02/18 03:17:02;;;;;;;14.88;9.40;;;;;;;;;;5068648;28;20044;-73
2023/02/18 03:19:59;;;;;;;20.35;9.43;;;;;;;;;;5066370;28;20021;-74
2023/02/18 03:22:47;;;;;;;16.08;10.05;;;;;;;;;;5055137;28;20090;-75
2023/02/18 03:25:33;;;;;;;15.82;9.65;;;;;;;;;;5055877;28;20021;-74
2023/02/18 03:28:21;;;;;;;16.65;9.68;;;;;;;;;;5055285;28;20021;-73
2023/02/18 03:31:09;;;;;;;14.23;9.60;;;;;;;;;;5054472;28;20017;-74
2023/02/18 03:33:58;;;;;;;15.13;9.18;;;;;;;;;;5055072;28;20028;-74
2023/02/18 03:36:44;;;;;;;13.65;8.98;;;;;;;;;;5055009;28;20028;-75
2023/02/18 03:39:31;;;;;;;17.17;9.57;;;;;;;;;;5054543;28;20442;-75
2023/02/18 03:42:17;;;;;;;17.08;9.18;;;;;;;;;;5057634;28;20017;-73
2023/02/18 03:45:03;;;;;;;15.10;9.90;;;;;;;;;;5059213;28;20039;-75
2023/02/18 03:47:48;;;;;;;15.35;9.50;;;;;;;;;;5060502;28;20021;-74
2023/02/18 03:50:34;;;;;;;15.75;9.25;;;;;;;;;;5055815;28;20045;-74
2023/02/18 03:53:19;;;;;;;14.23;9.30;;;;;;;;;;5054478;28;20017;-73
2023/02/18 03:56:05;;;;;;;16.08;9.45;;;;;;;;;;5054326;28;20032;-74
2023/02/18 03:58:51;;;;;;;14.32;9.35;;;;;;;;;;5061460;28;20028;-74
2023/02/18 04:01:37;;;;;;;12.35;8.63;;;;;;;;;;5064236;28;20036;-73
2023/02/18 04:04:22;;;;;;;15.00;8.90;;;;;;;;;;5054262;28;20159;-74
2023/02/18 04:07:08;;;;;;;14.65;8.75;;;;;;;;;;5054958;28;20021;-74
2023/02/18 04:09:54;;;;;;;14.43;9.25;;;;;;;;;;5053520;28;20446;-74
2023/02/18 04:12:39;;;;;;;14.00;8.90;;;;;;;;;;5053928;28;20032;-74
2023/02/18 04:15:25;;;;;;;14.85;8.95;;;;;;;;;;5054188;28;20037;-74
2023/02/18 04:18:10;;;;;;;14.27;8.98;;;;;;;;;;5054637;28;20104;-75
2023/02/18 04:20:56;;;;;;;13.00;8.35;;;;;;;;;;5053247;28;20020;-74
2023/02/18 04:23:42;;;;;;;12.43;8.55;;;;;;;;;;5054275;28;20015;-73
2023/02/18 04:26:28;;;;;;;13.68;8.50;;;;;;;;;;5053770;28;20020;-74
2023/02/18 04:29:13;;;;;;;13.80;8.23;;;;;;;;;;5054245;28;20017;-74
2023/02/18 04:31:59;;;;;;;13.48;8.45;;;;;;;;;;5055186;28;20135;-74
2023/02/18 04:34:45;;;;;;;11.90;8.07;;;;;;;;;;5057559;28;20029;-73
2023/02/18 04:37:30;;;;;;;12.85;8.05;;;;;;;;;;5057796;28;20032;-74
2023/02/18 04:40:16;;;;;;;16.08;7.95;;;;;;;;;;5056895;28;20021;-75
2023/02/18 04:43:02;;;;;;;12.65;7.75;;;;;;;;;;5057527;28;20063;-75
2023/02/18 04:45:47;;;;;;;11.50;7.60;;;;;;;;;;5057289;28;20024;-74
2023/02/18 04:48:33;;;;;;;12.05;8.02;;;;;;;;;;5056794;28;20361;-75
2023/02/18 04:51:19;;;;;;;11.80;7.70;;;;;;;;;;5057168;28;20024;-75
2023/02/18 04:54:05;;;;;;;11.07;7.05;;;;;;;;;;5056828;28;20113;-75
2023/02/18 04:56:50;;;;;;;11.18;7.30;;;;;;;;;;5056397;28;20013;-75
2023/02/18 04:59:36;;;;;;;11.90;7.50;;;;;;;;;;5056430;28;20439;-75
2023/02/18 05:02:24;;;;;;;11.13;7.10;;;;;;;;;;5056871;28;20020;-76
2023/02/18 05:05:10;;;;;;;10.80;7.05;;;;;;;;;;5056363;28;20032;-74
2023/02/18 05:07:56;;;;;;;17.45;7.10;;;;;;;;;;5057556;28;20029;-76
2023/02/18 05:10:41;;;;;;;12.07;6.93;;;;;;;;;;5056767;28;20035;-75
2023/02/18 05:13:27;;;;;;;11.85;7.28;;;;;;;;;;5056839;28;20029;-74
2023/02/18 05:16:12;;;;;;;15.40;7.43;;;;;;;;;;5056538;28;20085;-74
2023/02/18 05:18:58;;;;;;;13.38;7.50;;;;;;;;;;5057214;28;20021;-75
2023/02/18 05:21:44;;;;;;;13.27;6.95;;;;;;;;;;5056815;28;20100;-76
2023/02/18 05:24:29;;;;;;;11.52;6.78;;;;;;;;;;5057044;28;20095;-75
2023/02/18 05:27:15;;;;;;;12.82;6.60;;;;;;;;;;5056409;28;20029;-73
2023/02/18 05:30:00;;;;;;;14.90;7.15;;;;;;;;;;5057189;28;20067;-74
2023/02/18 05:32:46;;;;;;;11.05;7.22;;;;;;;;;;5058049;28;20124;-73
2023/02/18 05:35:32;;;;;;;11.98;7.22;;;;;;;;;;5056313;28;20032;-73
2023/02/18 05:38:17;;;;;;;10.75;7.22;;;;;;;;;;5059854;28;20017;-74
2023/02/18 05:41:03;;;;;;;11.13;7.13;;;;;;;;;;5059459;28;20071;-75
2023/02/18 05:46:53;;;;;;;13.13;7.25;;;;;;;;;;5063085;28;20027;-73
2023/02/18 05:49:39;;;;;;;10.32;6.93;;;;;;;;;;5063565;28;20021;-73
2023/02/18 05:52:25;;;;;;;11.35;7.28;;;;;;;;;;5069290;28;20424;-73
2023/02/18 05:55:10;;;;;;;12.13;6.75;;;;;;;;;;5060134;28;20055;-74
2023/02/18 05:57:56;;;;;;;12.10;7.20;;;;;;;;;;5064111;28;20100;-74
2023/02/18 06:00:42;;;;;;;15.20;7.22;;;;;;;;;;5063203;28;20023;-75
2023/02/18 06:03:27;;;;;;;10.55;6.38;;;;;;;;;;5060365;28;20438;-74
2023/02/18 06:06:13;;;;;;;9.88;6.55;;;;;;;;;;5060492;28;20039;-73
2023/02/18 06:08:59;;;;;;;12.43;6.75;;;;;;;;;;5059868;28;20021;-74
2023/02/18 06:11:44;;;;;;;14.02;7.30;;;;;;;;;;5063092;28;20016;-75
2023/02/18 06:14:30;;;;;;;13.23;7.38;;;;;;;;;;5059098;28;20032;-76
2023/02/18 06:17:17;;;;;;;10.95;6.78;;;;;;;;;;5060863;28;20078;-74
2023/02/18 06:20:03;;;;;;;11.48;7.18;;;;;;;;;;5059524;28;20449;-76
2023/02/18 06:22:48;;;;;;;12.90;7.15;;;;;;;;;;5057158;28;20113;-74
2023/02/18 06:25:34;;;;;;;12.73;7.38;;;;;;;;;;5055704;28;20021;-74
2023/02/18 06:28:20;;;;;;;13.55;7.07;;;;;;;;;;5057048;28;20045;-74
2023/02/18 06:31:05;;;;;;;13.45;7.10;;;;;;;;;;5058851;28;20116;-74
2023/02/18 06:33:51;;;;;;;11.40;6.68;;;;;;;;;;5057370;28;20021;-75
2023/02/18 06:36:37;;;;;;;16.00;7.32;;;;;;;;;;5055650;28;20035;-75
2023/02/18 06:39:22;;;;;;;12.02;7.25;;;;;;;;;;5056205;28;20025;-75
2023/02/18 06:42:08;;;;;;;14.35;7.50;;;;;;;;;;5059037;28;20139;-75
2023/02/18 06:44:53;;;;;;;10.85;6.63;;;;;;;;;;5055920;28;20024;-74
2023/02/18 06:47:39;;;;;;;13.23;7.10;;;;;;;;;;5059657;28;20453;-75
2023/02/18 06:50:25;;;;;;;21.48;7.50;;;;;;;;;;5063732;28;20025;-76
2023/02/18 06:53:11;;;;;;;11.63;7.45;;;;;;;;;;5064341;28;20115;-76
2023/02/18 06:55:57;;;;;;;14.23;7.22;;;;;;;;;;5063726;28;20025;-75
2023/02/18 06:58:42;;;;;;;11.27;7.45;;;;;;;;;;5063981;28;20085;-74
2023/02/18 07:01:28;;;;;;;12.57;7.43;;;;;;;;;;5061025;28;20074;-75
2023/02/18 07:04:13;;;;;;;14.07;7.60;;;;;;;;;;5059616;28;20017;-76
2023/02/18 07:06:59;;;;;;;14.02;8.20;;;;;;;;;;5065084;28;20039;-74
2023/02/18 07:09:44;;;;;;;14.07;7.80;;;;;;;;;;5064604;28;20463;-75
2023/02/18 07:12:30;;;;;;;12.63;7.78;;;;;;;;;;5061697;28;20504;-74
2023/02/18 07:15:16;;;;;;;12.65;7.72;;;;;;;;;;5060859;28;20021;-73
2023/02/18 07:18:01;;;;;;;12.57;7.45;;;;;;;;;;5059379;28;20327;-74
2023/02/18 07:20:47;;;;;;;17.30;7.80;;;;;;;;;;5060491;28;20025;-74
2023/02/18 07:23:33;;;;;;;11.48;7.05;;;;;;;;;;5058112;28;20025;-74
2023/02/18 07:26:18;;;;;;;45.67;9.23;;;;;;;;;;5058599;28;20033;-74
2023/02/18 07:29:04;;;;;;;15.55;7.32;;;;;;;;;;5056229;28;20452;-73
2023/02/18 07:31:49;;;;;;;15.82;7.80;;;;;;;;;;5054229;28;20049;-75
2023/02/18 07:34:35;;;;;;;15.88;7.57;;;;;;;;;;5054340;28;20028;-75
2023/02/18 07:37:20;;;;;;;12.57;7.55;;;;;;;;;;5053941;28;20331;-75
2023/02/18 07:40:06;;;;;;;17.73;7.53;;;;;;;;;;5054549;28;20102;-76
2023/02/18 07:42:52;;;;;;;14.93;7.40;;;;;;;;;;5054192;28;20024;-73
2023/02/18 07:45:38;;;;;;;16.67;7.22;;;;;;;;;;5054138;28;20449;-75
2023/02/18 07:48:23;;;;;;;19.98;7.05;;;;;;;;;;5054761;28;20464;-74
2023/02/18 07:51:10;;;;;;;12.75;6.88;;;;;;;;;;5054291;28;20049;-74
2023/02/18 07:53:55;;;;;;;20.77;7.55;;;;;;;;;;5054146;28;20021;-75
2023/02/18 07:56:44;;;;;;;14.48;7.97;;;;;;;;;;5054077;28;20025;-76
2023/02/18 07:59:29;;;;;;;13.40;7.45;;;;;;;;;;5054470;28;20027;-76
2023/02/18 08:02:17;;;;;;;15.63;7.40;;;;;;;;;;5054054;28;20052;-75
2023/02/18 08:05:03;;;;;;;14.80;7.43;;;;;;;;;;5058205;28;20025;-76
2023/02/18 08:07:48;;;;;;;18.73;7.03;;;;;;;;;;5065365;28;20033;-76
2023/02/18 08:10:34;;;;;;;11.02;6.72;;;;;;;;;;5064898;28;20017;-76
2023/02/18 08:13:19;;;;;;;22.27;7.35;;;;;;;;;;5063912;28;20021;-76
2023/02/18 08:16:05;;;;;;;17.70;7.35;;;;;;;;;;5065238;28;20070;-76
2023/02/18 08:18:51;;;;;;;12.25;7.05;;;;;;;;;;5062975;28;20464;-73
2023/02/18 08:21:36;;;;;;;18.88;6.97;;;;;;;;;;5064124;28;20046;-75
2023/02/18 08:24:22;;;;;;;12.95;7.07;;;;;;;;;;5062851;28;20028;-75
2023/02/18 08:27:08;;;;;;;15.85;7.32;;;;;;;;;;5060672;28;20017;-75
2023/02/18 08:29:54;;;;;;;20.75;6.88;;;;;;;;;;5059180;28;20033;-76
2023/02/18 08:32:40;;;;;;;12.05;7.03;;;;;;;;;;5076198;28;20063;-74
2023/02/18 08:35:25;;;;;;;15.10;6.88;;;;;;;;;;5072267;28;20468;-75
2023/02/18 08:38:11;;;;;;;11.98;6.80;;;;;;;;;;5060560;28;20103;-76
2023/02/18 08:41:01;;;;;;;17.27;7.57;;;;;;;;;;5058203;28;20036;-77
2023/02/18 08:43:47;;;;;;;13.60;7.13;;;;;;;;;;5058389;28;20091;-75
2023/02/18 08:46:33;;;;;;;11.05;7.30;;;;;;;;;;5058337;28;20025;-76
2023/02/18 08:49:19;;;;;;;15.50;7.75;;;;;;;;;;5058658;28;20017;-77
2023/02/18 08:52:05;;;;;;;11.93;7.00;;;;;;;;;;5070932;28;20060;-77
2023/02/18 08:54:51;;;;;;;12.57;7.15;;;;;;;;;;5064559;28;20410;-78
2023/02/18 08:57:36;;;;;;;14.25;7.15;;;;;;;;;;5058603;28;20025;-77
2023/02/18 09:00:22;;;;;;;13.25;7.85;;;;;;;;;;5057235;28;20053;-76
2023/02/18 09:03:11;;;;;;;15.88;7.25;;;;;;;;;;5057832;28;20028;-77
2023/02/18 09:05:58;;;;;;;18.35;7.28;;;;;;;;;;5057784;28;20017;-75
2023/02/18 09:08:43;;;;;;;20.90;7.35;;;;;;;;;;5057675;28;20047;-75
2023/02/18 09:11:29;;;;;;;16.70;7.65;;;;;;;;;;5057169;28;20037;-75
2023/02/18 09:14:15;;;;;;;15.20;7.25;;;;;;;;;;5057034;28;20032;-76
2023/02/18 09:17:01;;;;;;;54.72;9.65;;;;;;;;;;5057288;28;20335;-76
2023/02/18 09:19:46;;;;;;;17.83;7.20;;;;;;;;;;5055677;28;20021;-77
2023/02/18 09:22:32;;;;;;;37.85;8.50;;;;;;;;;;5055940;28;20013;-75
2023/02/18 09:25:17;;;;;;;11.93;7.35;;;;;;;;;;5056934;28;20090;-76
2023/02/18 09:28:03;;;;;;;12.98;7.07;;;;;;;;;;5056731;28;20025;-76
2023/02/18 09:30:48;;;;;;;16.10;7.93;;;;;;;;;;5055026;28;20017;-77
2023/02/18 09:33:38;;;;;;;13.60;8.32;;;;;;;;;;5056707;28;20025;-75
2023/02/18 09:36:24;;;;;;;18.05;7.97;;;;;;;;;;5056598;28;20025;-76
2023/02/18 09:39:11;;;;;;;14.32;7.93;;;;;;;;;;5056394;28;20028;-76
2023/02/18 09:42:01;;;;;;;18.65;7.53;;;;;;;;;;5056616;28;20021;-75
2023/02/18 09:44:49;;;;;;;16.10;8.10;;;;;;;;;;5056534;28;20442;-80
2023/02/18 09:47:36;;;;;;;19.83;7.90;;;;;;;;;;5056469;28;20064;-75
2023/02/18 09:50:24;;;;;;;19.80;8.02;;;;;;;;;;5055868;28;20095;-76
2023/02/18 09:53:11;;;;;;;21.55;8.32;;;;;;;;;;5056901;28;20032;-77
2023/02/18 09:55:59;;;;;;;17.50;8.32;;;;;;;;;;5056337;28;20021;-76
2023/02/18 09:58:45;;;;;;;16.88;7.95;;;;;;;;;;5055611;28;20085;-76
2023/02/18 10:01:38;;;;;;;13.55;7.60;;;;;;;;;;5056333;28;20017;-75
2023/02/18 10:04:29;;;;;;;14.00;8.30;;;;;;;;;;5055881;28;20052;-74
2023/02/18 10:07:41;;;;;;;46.13;9.07;;;;;;;;;;5057441;28;20043;-73
2023/02/18 10:10:29;;;;;;;12.90;7.60;;;;;;;;;;5056473;28;20012;-74
2023/02/18 10:13:20;;;;;;;18.98;7.40;;;;;;;;;;5055515;28;20028;-74
2023/02/18 10:16:06;;;;;;;15.20;7.78;;;;;;;;;;5055752;28;20111;-74
2023/02/18 10:19:14;;;;;;;25.23;7.70;;;;;;;;;;5056328;28;20013;-74
2023/02/18 10:22:01;;;;;;;14.10;7.55;;;;;;;;;;5055480;28;20021;-74
2023/02/18 10:24:55;;;;;;;11.30;7.30;;;;;;;;;;5055807;28;20090;-71
2023/02/18 10:27:41;;;;;;;12.52;7.50;;;;;;;;;;5055892;28;20464;-74
2023/02/18 10:30:31;;;;;;;19.83;7.45;;;;;;;;;;5054205;28;20029;-74
2023/02/18 10:33:19;;;;;;;13.15;7.53;;;;;;;;;;5055403;28;20467;-73
2023/02/18 10:36:05;;;;;;;14.73;7.78;;;;;;;;;;5054905;28;20024;-74
2023/02/18 10:38:56;;;;;;;18.10;7.70;;;;;;;;;;5054710;28;20013;-75
2023/02/18 10:41:42;;;;;;;12.32;7.35;;;;;;;;;;5055026;28;20121;-73
2023/02/18 10:44:31;;;;;;;14.60;7.57;;;;;;;;;;5054904;28;20021;-74
2023/02/18 10:47:19;;;;;;;17.20;7.40;;;;;;;;;;5054896;28;20035;-74
2023/02/18 10:50:28;;;;;;;15.57;7.88;;;;;;;;;;5054859;28;20044;-74
2023/02/18 10:53:23;;;;;;;19.88;8.07;;;;;;;;;;5055262;28;20021;-75
2023/02/18 10:56:28;;;;;;;13.63;7.80;;;;;;;;;;5055455;28;20021;-74
2023/02/18 10:59:14;;;;;;;13.77;7.30;;;;;;;;;;5055656;28;20017;-74
2023/02/18 11:02:04;;;;;;;12.25;7.30;;;;;;;;;;5055175;28;20437;-73
2023/02/18 11:04:50;;;;;;;18.00;7.35;;;;;;;;;;5054864;28;20025;-73
2023/02/18 11:07:37;;;;;;;13.05;7.13;;;;;;;;;;5054397;28;20116;-74
2023/02/18 11:10:24;;;;;;;15.10;7.70;;;;;;;;;;5055216;28;20017;-71
2023/02/18 11:13:12;;;;;;;14.43;8.15;;;;;;;;;;5055025;28;20029;-72
2023/02/18 11:16:03;;;;;;;14.43;7.75;;;;;;;;;;5057520;28;20032;-74
2023/02/18 11:18:49;;;;;;;15.43;7.60;;;;;;;;;;5057870;28;20021;-73
2023/02/18 11:21:36;;;;;;;17.05;8.57;;;;;;;;;;5055755;28;20445;-75
2023/02/18 11:24:23;;;;;;;16.85;8.18;;;;;;;;;;5055424;28;20078;-73
2023/02/18 11:27:09;;;;;;;13.75;7.97;;;;;;;;;;5056476;28;20338;-73
2023/02/18 11:29:59;;;;;;;31.80;8.38;;;;;;;;;;5068866;28;20017;-73
2023/02/18 11:32:47;;;;;;;12.60;7.65;;;;;;;;;;5074763;28;20053;-73
2023/02/18 11:35:33;;;;;;;15.88;8.02;;;;;;;;;;5056234;28;20091;-75
2023/02/18 11:38:32;;;;;;;13.93;7.65;;;;;;;;;;5054632;28;20024;-74
2023/02/18 11:41:20;;;;;;;11.30;7.18;;;;;;;;;;5053704;28;20464;-75
2023/02/18 11:44:07;;;;;;;18.10;7.03;;;;;;;;;;5054594;28;20037;-74
2023/02/18 11:47:00;;;;;;;11.43;7.38;;;;;;;;;;5054273;28;20060;-75
2023/02/18 11:50:06;;;;;;;13.45;7.80;;;;;;;;;;5054607;28;20028;-74
2023/02/18 11:52:56;;;;;;;16.67;7.90;;;;;;;;;;5068829;28;20037;-74
2023/02/18 11:55:52;;;;;;;16.02;8.02;;;;;;;;;;5054794;28;20025;-73
2023/02/18 11:58:41;;;;;;;13.82;7.80;;;;;;;;;;5054613;28;20446;-74
2023/02/18 12:01:35;;;;;;;15.48;8.10;;;;;;;;;;5053932;28;20452;-73
2023/02/18 12:04:26;;;;;;;18.58;8.02;;;;;;;;;;5054578;28;20115;-72
2023/02/18 12:07:12;;;;;;;12.65;7.53;;;;;;;;;;5053761;28;20021;-73
2023/02/18 12:10:11;;;;;;;14.23;7.47;;;;;;;;;;5054181;28;20464;-72
2023/02/18 12:13:06;;;;;;;15.75;8.35;;;;;;;;;;5054242;28;20352;-74
2023/02/18 12:16:16;;;;;;;12.27;7.93;;;;;;;;;;5054482;28;20021;-75
2023/02/18 12:19:02;;;;;;;14.35;7.57;;;;;;;;;;5051247;28;20043;-73
2023/02/18 12:22:01;;;;;;;22.00;8.07;;;;;;;;;;5072721;28;20013;-74
2023/02/18 12:24:53;;;;;;;24.63;8.35;;;;;;;;;;5074337;28;20036;-73
2023/02/18 12:27:57;;;;;;;17.45;7.95;;;;;;;;;;5072970;28;20109;-74
2023/02/18 12:30:57;;;;;;;17.40;7.90;;;;;;;;;;5073839;28;20025;-74
2023/02/18 12:33:42;;;;;;;12.77;7.63;;;;;;;;;;5074642;28;20106;-73
2023/02/18 12:36:54;;;;;;;15.50;8.18;;;;;;;;;;5074268;28;20472;-74
2023/02/18 12:39:53;;;;;;;11.77;7.20;;;;;;;;;;5062127;28;20531;-74
2023/02/18 12:42:41;;;;;;;13.57;7.70;;;;;;;;;;5058370;28;20096;-76
2023/02/18 12:45:27;;;;;;;23.77;7.65;;;;;;;;;;5072747;28;20017;-76
2023/02/18 12:48:18;;;;;;;14.88;7.55;;;;;;;;;;5072734;28;20020;-77
2023/02/18 12:51:04;;;;;;;12.52;7.10;;;;;;;;;;5071909;28;20464;-77
2023/02/18 12:53:50;;;;;;;13.10;7.47;;;;;;;;;;5075169;28;20039;-77
2023/02/18 12:57:02;;;;;;;15.40;8.02;;;;;;;;;;5068483;28;20074;-78
2023/02/18 13:00:00;;;;;;;15.07;8.07;;;;;;;;;;5056601;28;20036;-77
2023/02/18 13:03:07;;;;;;;14.20;7.85;;;;;;;;;;5057161;28;20456;-77
2023/02/18 13:06:16;;;;;;;14.68;8.38;;;;;;;;;;5057364;28;20170;-76
2023/02/18 13:09:01;;;;;;;13.68;8.32;;;;;;;;;;5057890;28;20040;-77
2023/02/18 13:11:47;;;;;;;11.85;7.63;;;;;;;;;;5056969;28;20032;-77
2023/02/18 13:14:38;;;;;;;13.50;8.13;;;;;;;;;;5057320;28;20107;-77
2023/02/18 13:17:28;;;;;;;13.80;8.30;;;;;;;;;;5057742;28;20021;-77
2023/02/18 13:20:20;;;;;;;13.75;8.40;;;;;;;;;;5057239;28;20116;-75
2023/02/18 13:23:09;;;;;;;12.75;7.95;;;;;;;;;;5056597;28;20104;-77
2023/02/18 13:25:57;;;;;;;16.40;8.60;;;;;;;;;;5057344;28;20053;-78
2023/02/18 13:29:01;;;;;;;11.48;7.90;;;;;;;;;;5056548;28;20021;-77
2023/02/18 13:31:53;;;;;;;17.58;8.30;;;;;;;;;;5056674;28;20057;-77
2023/02/18 13:34:44;;;;;;;13.10;8.55;;;;;;;;;;5056203;28;20021;-76
2023/02/18 13:37:48;;;;;;;12.73;8.07;;;;;;;;;;5056862;28;20028;-77
2023/02/18 13:40:43;;;;;;;15.82;8.13;;;;;;;;;;5056492;28;20182;-76
2023/02/18 13:43:29;;;;;;;13.50;8.10;;;;;;;;;;5056168;28;20048;-76
2023/02/18 13:46:21;;;;;;;16.27;7.85;;;;;;;;;;5056169;28;20492;-77
2023/02/18 13:49:11;;;;;;;13.13;6.97;;;;;;;;;;5056740;28;20075;-77
2023/02/18 13:51:59;;;;;;;12.07;7.32;;;;;;;;;;5055777;28;20021;-76
2023/02/18 13:54:45;;;;;;;12.98;7.30;;;;;;;;;;5056958;28;20216;-76
2023/02/18 13:57:35;;;;;;;14.32;7.50;;;;;;;;;;5055803;28;20014;-78
2023/02/18 14:00:22;;;;;;;12.18;7.28;;;;;;;;;;5055841;28;20024;-75
2023/02/18 14:03:27;;;;;;;16.80;7.72;;;;;;;;;;5055844;28;20028;-77
2023/02/18 14:06:18;;;;;;;15.07;8.00;;;;;;;;;;5055159;28;20029;-77
2023/02/18 14:09:12;;;;;;;18.08;9.50;;;;;;;;;;5056114;28;20028;-76
2023/02/18 14:12:17;;;;;;;22.42;9.68;;;;;;;;;;5055564;28;20071;-77
2023/02/18 14:15:22;;;;;;;11.27;7.65;;;;;;;;;;5056334;28;20063;-74
2023/02/18 14:18:11;;;;;;;11.32;7.15;;;;;;;;;;5026771;28;20028;-77
2023/02/18 14:21:23;;;;;;;10.95;7.05;;;;;;;;;;5055526;28;20074;-76
2023/02/18 14:24:12;;;;;;;10.30;7.22;;;;;;;;;;5055615;28;20082;-75
2023/02/18 14:27:07;;;;;;;14.15;7.80;;;;;;;;;;5040502;28;20366;-76
2023/02/18 14:29:53;;;;;;;12.15;7.00;;;;;;;;;;5037059;28;20037;-77
2023/02/18 14:32:39;;;;;;;36.33;8.10;;;;;;;;;;5035600;28;20053;-78
2023/02/18 14:35:36;;;;;;;15.15;7.45;;;;;;;;;;5037076;28;20022;-76
2023/02/18 14:38:32;;;;;;;12.05;6.22;;;;;;;;;;5035821;28;20056;-76
2023/02/18 14:41:24;;;;;;;16.42;7.10;;;;;;;;;;5034823;28;20354;-78
2023/02/18 14:44:13;;;;;;;13.60;7.65;;;;;;;;;;5034507;28;20430;-76
2023/02/18 14:47:02;;;;;;;11.85;7.38;;;;;;;;;;5035473;28;20021;-76
2023/02/18 14:50:01;;;;;;;12.70;6.57;;;;;;;;;;5034894;28;20462;-77
2023/02/18 14:52:59;;;;;;;12.68;6.85;;;;;;;;;;5034346;28;20040;-76
2023/02/18 14:55:46;;;;;;;11.98;7.13;;;;;;;;;;5035694;28;20021;-75
2023/02/18 14:58:36;;;;;;;12.45;6.63;;;;;;;;;;5037467;28;20014;-76
2023/02/18 15:01:22;;;;;;;10.77;7.13;;;;;;;;;;5049819;28;20033;-77
2023/02/18 15:04:12;;;;;;;13.85;7.22;;;;;;;;;;5037283;28;20438;-77
2023/02/18 15:07:03;;;;;;;10.50;6.80;;;;;;;;;;5036459;28;20052;-76
2023/02/18 15:09:54;;;;;;;10.93;7.22;;;;;;;;;;5034432;28;20032;-75
2023/02/18 15:12:40;;;;;;;12.07;7.25;;;;;;;;;;5035695;28;20426;-76
2023/02/18 15:15:26;;;;;;;9.52;6.78;;;;;;;;;;5035571;28;20112;-77
2023/02/18 15:18:32;;;;;;;16.75;6.88;;;;;;;;;;5034927;28;20101;-77
2023/02/18 15:21:43;;;;;;;11.65;6.38;;;;;;;;;;5042896;28;20097;-76
2023/02/18 15:24:30;;;;;;;14.05;7.78;;;;;;;;;;5036281;28;20017;-75
2023/02/18 15:27:23;;;;;;;11.15;7.18;;;;;;;;;;5035528;28;20507;-75
2023/02/18 15:30:12;;;;;;;10.20;6.68;;;;;;;;;;5036349;28;20083;-77
2023/02/18 15:32:58;;;;;;;10.77;7.10;;;;;;;;;;5034807;28;20111;-74
2023/02/18 15:35:44;;;;;;;15.25;7.07;;;;;;;;;;5035139;28;20036;-75
2023/02/18 15:38:30;;;;;;;14.85;7.85;;;;;;;;;;5034688;28;20017;-76
2023/02/18 15:41:17;;;;;;;12.20;7.30;;;;;;;;;;5035567;28;20025;-76
2023/02/18 15:44:04;;;;;;;9.57;7.13;;;;;;;;;;5034960;28;20028;-74
2023/02/18 15:46:50;;;;;;;12.23;6.43;;;;;;;;;;5035656;28;20040;-75
2023/02/18 15:49:37;;;;;;;12.43;7.53;;;;;;;;;;5034172;28;20439;-75
2023/02/18 15:52:27;;;;;;;12.98;7.57;;;;;;;;;;5035032;28;20025;-75
2023/02/18 15:55:19;;;;;;;14.52;7.53;;;;;;;;;;5035475;28;20515;-75
2023/02/18 15:58:13;;;;;;;13.73;7.53;;;;;;;;;;5035292;28;20025;-74
2023/02/18 16:01:03;;;;;;;12.60;7.80;;;;;;;;;;5034436;28;20086;-75
2023/02/18 16:03:49;;;;;;;11.93;7.13;;;;;;;;;;5035255;28;20028;-75
2023/02/18 16:06:36;;;;;;;20.52;7.28;;;;;;;;;;5035617;28;20450;-75
2023/02/18 16:09:24;;;;;;;10.15;7.05;;;;;;;;;;5035885;28;20025;-76
2023/02/18 16:12:30;;;;;;;13.20;7.07;;;;;;;;;;5035310;28;20024;-76
2023/02/18 16:15:21;;;;;;;20.30;7.35;;;;;;;;;;5034054;28;20025;-76
2023/02/18 16:18:26;;;;;;;13.00;7.18;;;;;;;;;;5034421;28;20025;-75
2023/02/18 16:21:17;;;;;;;11.95;7.28;;;;;;;;;;5034705;28;20025;-75
2023/02/18 16:24:20;;;;;;;12.70;8.10;;;;;;;;;;5034468;28;20032;-76
2023/02/18 16:27:13;;;;;;;12.68;7.40;;;;;;;;;;5035007;28;20033;-75
2023/02/18 16:30:01;;;;;;;11.25;6.88;;;;;;;;;;5038690;28;20021;-80
2023/02/18 16:32:47;;;;;;;15.52;7.50;;;;;;;;;;5038451;28;20053;-76
2023/02/18 16:35:33;;;;;;;14.73;7.70;;;;;;;;;;5037619;28;20048;-72
2023/02/18 16:38:20;;;;;;;15.13;7.70;;;;;;;;;;5039360;28;20043;-72